Time;durP1;ratioP1;P1;durP2;ratioP2;P2;SDS_P1;SDS_P2;PMS_P1;PMS_P2;Temp;Humidity;BMP_temperature;BMP_pressure;BME280_temperature;BME280_humidity;BME280_pressure;Samples;Min_cycle;Max_cycle;Signal;HPM_P1;HPM_P2
2022/10/10 00:02:07;;;;;;;2.95;1.80;;;;;;;11.93;59.38;99837.47;5023019;28;20368;-85
2022/10/10 00:04:32;;;;;;;2.28;0.85;;;;;;;11.86;59.58;99835.00;5022657;28;20042;-85
2022/10/10 00:06:58;;;;;;;6.55;1.40;;;;;;;11.83;59.63;99832.81;5020265;28;20108;-84
2022/10/10 00:09:23;;;;;;;3.00;1.27;;;;;;;11.86;59.51;99835.84;5020878;28;20080;-84
2022/10/10 00:11:48;;;;;;;3.63;1.30;;;;;;;11.89;59.89;99837.22;5022257;28;20262;-85
2022/10/10 00:14:14;;;;;;;4.43;1.20;;;;;;;11.85;59.60;99826.00;5021301;28;20285;-85
2022/10/10 00:16:39;;;;;;;9.43;2.27;;;;;;;11.79;59.81;99825.19;5022037;28;20033;-85
2022/10/10 00:19:04;;;;;;;2.00;1.00;;;;;;;11.83;60.19;99824.63;5023186;28;20274;-85
2022/10/10 00:21:29;;;;;;;3.75;1.50;;;;;;;11.77;59.95;99827.38;5019864;28;20251;-85
2022/10/10 00:23:55;;;;;;;3.13;1.23;;;;;;;11.78;60.42;99825.44;5022835;28;20041;-85
2022/10/10 00:26:20;;;;;;;5.17;1.70;;;;;;;11.78;60.64;99820.81;5020025;28;20359;-84
2022/10/10 00:28:46;;;;;;;10.35;1.88;;;;;;;11.79;60.67;99821.63;5021821;28;20635;-85
2022/10/10 00:31:11;;;;;;;3.13;1.52;;;;;;;11.80;60.75;99828.72;5020138;28;20029;-85
2022/10/10 00:33:37;;;;;;;7.95;2.03;;;;;;;11.81;60.19;99832.28;5023194;28;20041;-85
2022/10/10 00:36:02;;;;;;;6.30;1.40;;;;;;;11.76;60.55;99831.19;5021541;28;20504;-84
2022/10/10 00:38:28;;;;;;;5.97;1.83;;;;;;;11.74;61.13;99821.59;5022454;28;20376;-85
2022/10/10 00:40:55;;;;;;;2.67;1.35;;;;;;;11.70;61.11;99823.25;5021320;28;20031;-85
2022/10/10 00:43:22;;;;;;;3.50;1.58;;;;;;;11.65;61.16;99824.06;5022292;28;20442;-84
2022/10/10 00:45:48;;;;;;;4.50;1.52;;;;;;;11.64;61.39;99820.50;5022111;28;20038;-85
2022/10/10 00:48:24;;;;;;;4.30;2.20;;;;;;;11.59;61.30;99819.69;5020466;28;20402;-84
2022/10/10 00:50:55;;;;;;;2.67;1.67;;;;;;;11.54;61.53;99817.75;5022135;28;20479;-85
2022/10/10 00:53:27;;;;;;;5.68;2.10;;;;;;;11.50;61.33;99820.22;5023272;28;20103;-84
2022/10/10 00:55:53;;;;;;;2.20;0.98;;;;;;;11.51;61.89;99810.91;5021646;28;20029;-85
2022/10/10 00:58:20;;;;;;;3.50;1.17;;;;;;;11.51;62.15;99815.59;5020853;28;20025;-85
2022/10/10 01:00:45;;;;;;;3.30;1.45;;;;;;;11.48;62.02;99811.47;5019918;28;20041;-85
2022/10/10 01:03:11;;;;;;;5.07;1.80;;;;;;;11.49;62.27;99813.09;5023306;28;20043;-85
2022/10/10 01:05:39;;;;;;;3.70;1.77;;;;;;;11.55;61.89;99800.31;5018806;28;20025;-85
2022/10/10 01:08:06;;;;;;;5.35;1.65;;;;;;;11.43;62.24;99801.34;5021422;28;20570;-85
2022/10/10 01:10:40;;;;;;;3.22;1.15;;;;;;;11.42;62.42;99801.63;5021493;28;20044;-84
2022/10/10 01:13:26;;;;;;;4.97;2.42;;;;;;;11.39;62.75;99802.97;5020772;28;20063;-85
2022/10/10 01:16:02;;;;;;;8.63;2.08;;;;;;;11.39;62.46;99796.72;5019271;28;20038;-84
2022/10/10 01:18:39;;;;;;;3.50;1.33;;;;;;;11.42;62.46;99801.63;5019279;28;20034;-84
2022/10/10 01:21:11;;;;;;;3.45;1.60;;;;;;;11.41;62.60;99794.53;5021032;28;20091;-84
2022/10/10 01:23:45;;;;;;;4.43;1.48;;;;;;;11.41;63.20;99800.00;5022014;28;20113;-85
2022/10/10 01:26:38;;;;;;;5.68;1.52;;;;;;;11.37;63.25;99793.44;5019144;28;20105;-83
2022/10/10 01:29:33;;;;;;;14.60;2.17;;;;;;;11.36;63.25;99795.34;5021517;28;20036;-84
2022/10/10 01:32:33;;;;;;;2.53;1.17;;;;;;;11.40;63.48;99792.88;5018682;28;20034;-84
2022/10/10 01:35:22;;;;;;;4.75;2.25;;;;;;;11.37;63.25;99791.50;5018266;28;20354;-85
2022/10/10 01:37:57;;;;;;;4.63;1.45;;;;;;;11.35;63.55;99792.88;5021559;28;20372;-85
2022/10/10 01:40:26;;;;;;;3.97;1.75;;;;;;;11.32;63.48;99791.50;5019827;28;20030;-85
2022/10/10 01:42:58;;;;;;;3.10;1.48;;;;;;;11.35;63.75;99782.78;5023748;28;20029;-85
2022/10/10 01:45:25;;;;;;;4.68;1.60;;;;;;;11.31;64.02;99781.66;5020664;28;20092;-85
2022/10/10 01:47:54;;;;;;;2.45;1.40;;;;;;;11.36;63.71;99783.59;5017951;28;20137;-85
2022/10/10 01:50:22;;;;;;;3.55;2.20;;;;;;;11.30;64.08;99783.59;5054906;28;20037;-84
2022/10/10 01:53:23;;;;;;;1.92;1.13;;;;;;;11.35;63.86;99782.78;5022897;28;20077;-85
2022/10/10 01:56:12;;;;;;;3.67;1.80;;;;;;;11.34;64.03;99778.41;4997568;28;20171;-86
2022/10/10 01:59:06;;;;;;;9.02;1.88;;;;;;;11.37;64.02;99774.34;5020762;28;20049;-85
2022/10/10 02:01:46;;;;;;;6.33;1.53;;;;;;;11.36;64.49;99772.69;5020431;28;20060;-85
2022/10/10 02:04:24;;;;;;;2.70;1.40;;;;;;;11.38;64.62;99773.22;5019822;28;20325;-85
2022/10/10 02:06:58;;;;;;;4.05;1.30;;;;;;;11.30;64.89;99771.84;5018527;28;20026;-85
2022/10/10 02:09:33;;;;;;;5.10;1.60;;;;;;;11.36;64.85;99772.69;5018705;28;20104;-85
2022/10/10 02:11:59;;;;;;;5.30;1.65;;;;;;;11.40;64.76;99771.88;5020676;28;20041;-86
2022/10/10 02:14:31;;;;;;;3.70;1.50;;;;;;;11.37;65.03;99766.16;5021385;28;20059;-84
2022/10/10 02:16:59;;;;;;;4.22;1.95;;;;;;;11.33;65.05;99763.94;5020902;28;20033;-85
2022/10/10 02:19:27;;;;;;;3.97;1.67;;;;;;;11.31;65.12;99768.03;5022756;28;20041;-85
2022/10/10 02:21:54;;;;;;;3.83;1.83;;;;;;;11.32;65.29;99759.59;5020296;28;20032;-85
2022/10/10 02:24:22;;;;;;;4.93;1.90;;;;;;;11.36;65.40;99764.50;5019083;28;20072;-85
2022/10/10 02:26:55;;;;;;;6.82;2.30;;;;;;;11.35;65.63;99757.41;5019452;28;20030;-85
2022/10/10 02:29:33;;;;;;;4.03;1.95;;;;;;;11.33;65.51;99766.66;5021092;28;20040;-84
2022/10/10 02:32:07;;;;;;;4.10;2.13;;;;;;;11.42;65.65;99761.50;5021400;28;20034;-85
2022/10/10 02:34:43;;;;;;;3.45;1.40;;;;;;;11.30;65.83;99756.31;5020078;28;20057;-84
2022/10/10 02:37:12;;;;;;;4.57;1.83;;;;;;;11.29;65.94;99757.38;5020076;28;20567;-84
2022/10/10 02:39:47;;;;;;;4.97;1.98;;;;;;;11.37;65.48;99755.22;5018906;28;20290;-84
2022/10/10 02:42:15;;;;;;;4.32;1.77;;;;;;;11.40;66.08;99750.03;5020208;28;20053;-85
2022/10/10 02:44:41;;;;;;;6.13;2.95;;;;;;;11.41;65.87;99756.31;5019134;28;20036;-85
2022/10/10 02:47:06;;;;;;;10.30;2.00;;;;;;;11.40;65.53;99755.50;5019709;28;20046;-85
2022/10/10 02:49:33;;;;;;;4.72;1.58;;;;;;;11.25;66.36;99753.56;5021102;28;20026;-84
2022/10/10 02:52:00;;;;;;;5.07;1.95;;;;;;;11.31;66.26;99752.47;5019783;28;20175;-84
2022/10/10 02:54:25;;;;;;;6.93;1.77;;;;;;;11.26;66.63;99743.47;5021622;28;20044;-84
2022/10/10 02:56:51;;;;;;;3.25;1.75;;;;;;;11.29;66.70;99749.19;5020390;28;20030;-84
2022/10/10 02:59:16;;;;;;;3.78;1.48;;;;;;;11.29;66.35;99738.28;5020019;28;20418;-85
2022/10/10 03:01:42;;;;;;;6.82;2.17;;;;;;;11.36;66.35;99742.66;5022329;28;20299;-84
2022/10/10 03:04:07;;;;;;;3.78;2.35;;;;;;;11.33;66.54;99744.00;5026211;28;20045;-85
2022/10/10 03:06:34;;;;;;;4.90;2.45;;;;;;;11.29;66.50;99738.28;5023885;28;20092;-85
2022/10/10 03:08:59;;;;;;;4.43;1.52;;;;;;;11.29;67.11;99735.53;5020898;28;20034;-84
2022/10/10 03:11:24;;;;;;;10.10;2.15;;;;;;;11.11;67.46;99736.03;5023946;28;20207;-85
2022/10/10 03:13:50;;;;;;;6.20;2.97;;;;;;;11.31;67.33;99735.28;5023487;28;20048;-85
2022/10/10 03:16:15;;;;;;;11.50;2.73;;;;;;;11.27;67.43;99726.00;5021678;28;20077;-85
2022/10/10 03:18:40;;;;;;;7.03;2.73;;;;;;;11.30;67.13;99729.00;5023348;28;20262;-85
2022/10/10 03:21:05;;;;;;;5.40;2.47;;;;;;;11.22;67.45;99726.81;5023954;28;20274;-84
2022/10/10 03:23:31;;;;;;;10.40;3.67;;;;;;;11.31;67.53;99725.19;5022480;28;20778;-85
2022/10/10 03:25:57;;;;;;;4.80;2.28;;;;;;;11.30;67.40;99730.91;5027242;28;20030;-85
2022/10/10 03:28:22;;;;;;;4.50;1.70;;;;;;;11.37;67.25;99725.19;5032999;28;20044;-84
2022/10/10 03:30:47;;;;;;;6.87;2.20;;;;;;;11.36;66.99;99726.28;5033302;28;20030;-85
2022/10/10 03:33:13;;;;;;;6.65;2.83;;;;;;;11.35;67.74;99720.00;5032108;28;20418;-84
2022/10/10 03:35:38;;;;;;;5.95;2.20;;;;;;;11.40;67.17;99716.47;5033218;28;20048;-84
2022/10/10 03:38:04;;;;;;;5.55;2.33;;;;;;;11.42;67.43;99714.28;5032889;28;20039;-83
2022/10/10 03:40:29;;;;;;;3.88;2.20;;;;;;;11.32;67.79;99717.81;5032509;28;20068;-84
2022/10/10 03:42:55;;;;;;;14.25;3.47;;;;;;;11.33;67.82;99720.28;5032752;28;20462;-84
2022/10/10 03:45:21;;;;;;;6.88;2.10;;;;;;;11.24;68.28;99723.81;5032282;28;20112;-84
2022/10/10 03:47:46;;;;;;;4.93;1.88;;;;;;;11.28;67.94;99720.28;5032724;28;20150;-85
2022/10/10 03:50:11;;;;;;;8.00;3.00;;;;;;;11.18;68.21;99725.72;5032862;28;20113;-83
2022/10/10 03:52:37;;;;;;;6.93;2.17;;;;;;;11.27;68.68;99720.56;5032307;28;20506;-84
2022/10/10 03:55:02;;;;;;;4.80;2.03;;;;;;;11.26;68.40;99714.28;5032738;28;20046;-84
2022/10/10 03:57:28;;;;;;;5.65;2.22;;;;;;;11.39;68.24;99723.03;5032810;28;20410;-84
2022/10/10 03:59:53;;;;;;;4.73;1.80;;;;;;;11.35;68.33;99721.94;5030905;28;20092;-84
2022/10/10 04:02:18;;;;;;;4.57;1.65;;;;;;;11.31;68.55;99714.25;5031787;28;20266;-84
2022/10/10 04:04:43;;;;;;;4.15;2.20;;;;;;;11.38;67.92;99710.44;5032072;28;20045;-85
2022/10/10 04:07:09;;;;;;;9.07;2.40;;;;;;;11.31;68.45;99714.25;5032288;28;20466;-83
2022/10/10 04:09:34;;;;;;;6.43;2.10;;;;;;;11.32;68.28;99715.09;5032235;28;20255;-84
2022/10/10 04:12:00;;;;;;;3.97;2.07;;;;;;;11.34;68.62;99704.72;5031643;28;20120;-84
2022/10/10 04:14:25;;;;;;;9.48;2.15;;;;;;;11.25;69.16;99704.44;5031875;28;20263;-84
2022/10/10 04:16:51;;;;;;;4.35;2.00;;;;;;;11.35;69.01;99703.63;5032453;28;20033;-84
2022/10/10 04:19:16;;;;;;;4.00;1.57;;;;;;;11.30;68.86;99712.63;5032383;28;20080;-84
2022/10/10 04:21:42;;;;;;;10.27;2.70;;;;;;;11.26;69.07;99705.25;5031788;28;20277;-84
2022/10/10 04:24:07;;;;;;;13.38;3.00;;;;;;;11.18;69.21;99714.81;5031627;28;20120;-84
2022/10/10 04:26:32;;;;;;;3.45;1.67;;;;;;;11.09;70.02;99715.31;5031958;28;20026;-84
2022/10/10 04:28:58;;;;;;;5.75;2.10;;;;;;;11.18;69.40;99709.34;5031966;28;20037;-84
2022/10/10 04:31:23;;;;;;;4.90;1.90;;;;;;;11.20;69.59;99704.44;5032070;28;20112;-85
2022/10/10 04:33:48;;;;;;;4.22;1.80;;;;;;;11.20;69.54;99704.44;5031080;28;20044;-85
2022/10/10 04:36:14;;;;;;;6.05;2.42;;;;;;;11.21;69.50;99703.31;5031781;28;20041;-85
2022/10/10 04:38:40;;;;;;;8.55;2.47;;;;;;;11.29;69.46;99688.31;5032108;28;20030;-84
2022/10/10 04:41:05;;;;;;;4.18;1.80;;;;;;;11.29;69.48;99688.31;5031191;28;20029;-85
2022/10/10 04:43:30;;;;;;;6.13;3.47;;;;;;;11.32;69.47;99687.78;5031285;28;20068;-85
2022/10/10 04:45:57;;;;;;;5.47;2.25;;;;;;;11.05;70.59;99692.41;5031799;28;20029;-85
2022/10/10 04:48:22;;;;;;;5.78;2.30;;;;;;;11.12;70.31;99694.03;5030985;28;20100;-84
2022/10/10 04:50:52;;;;;;;4.90;2.55;;;;;;;11.12;70.12;99691.31;5032124;28;20493;-85
2022/10/10 04:53:17;;;;;;;5.72;3.35;;;;;;;11.20;70.04;99688.06;5031106;28;20038;-85
2022/10/10 04:55:43;;;;;;;7.50;2.90;;;;;;;11.17;70.50;99683.13;5031266;28;20052;-85
2022/10/10 04:58:08;;;;;;;4.35;1.75;;;;;;;11.22;70.51;99685.88;5031015;28;20541;-85
2022/10/10 05:00:34;;;;;;;5.93;2.63;;;;;;;11.18;70.50;99682.06;5031233;28;20478;-84
2022/10/10 05:02:59;;;;;;;4.68;2.42;;;;;;;11.19;70.41;99689.97;5030633;28;20651;-85
2022/10/10 05:05:24;;;;;;;6.97;2.53;;;;;;;11.16;70.66;99679.59;5030911;28;20018;-84
2022/10/10 05:07:49;;;;;;;8.17;2.43;;;;;;;11.27;69.82;99690.53;5031211;28;20068;-84
2022/10/10 05:10:15;;;;;;;6.68;2.67;;;;;;;11.31;70.23;99684.25;5031409;28;20393;-85
2022/10/10 05:12:40;;;;;;;4.88;2.13;;;;;;;11.28;70.14;99692.97;5030588;28;20060;-85
2022/10/10 05:15:06;;;;;;;6.80;2.30;;;;;;;11.29;70.27;99678.22;5030647;28;20033;-85
2022/10/10 05:17:31;;;;;;;4.55;1.95;;;;;;;11.36;70.45;99680.69;5029444;28;20259;-84
2022/10/10 05:19:56;;;;;;;6.63;2.92;;;;;;;11.24;70.48;99689.16;5022104;28;20121;-85
2022/10/10 05:22:22;;;;;;;9.23;2.30;;;;;;;11.23;70.66;99686.72;5020787;28;20032;-85
2022/10/10 05:24:47;;;;;;;5.40;3.08;;;;;;;11.28;70.58;99701.16;5018677;28;20267;-85
2022/10/10 05:27:12;;;;;;;4.33;2.20;;;;;;;11.48;70.21;99701.44;5015384;28;20026;-85
2022/10/10 05:29:37;;;;;;;4.10;1.97;;;;;;;11.48;70.31;99704.19;5012119;28;20267;-85
2022/10/10 05:32:03;;;;;;;6.03;2.60;;;;;;;11.41;70.24;99693.53;5011631;28;20699;-84
2022/10/10 05:34:28;;;;;;;6.25;2.25;;;;;;;11.29;70.72;99702.78;5030260;28;20247;-84
2022/10/10 05:36:55;;;;;;;5.38;2.72;;;;;;;11.35;70.54;99692.69;5030401;28;20121;-84
2022/10/10 05:39:21;;;;;;;6.05;2.67;;;;;;;11.28;70.64;99692.97;5030647;28;20025;-85
2022/10/10 05:41:46;;;;;;;5.43;2.45;;;;;;;11.28;70.37;99690.25;5029210;28;20135;-84
2022/10/10 05:44:11;;;;;;;3.87;1.80;;;;;;;11.16;71.16;99689.69;5028850;28;20317;-85
2022/10/10 05:46:36;;;;;;;5.18;2.10;;;;;;;11.14;71.36;99698.16;5029150;28;20282;-85
2022/10/10 05:49:02;;;;;;;7.47;2.60;;;;;;;11.24;71.26;99694.63;5030701;28;20291;-85
2022/10/10 05:51:27;;;;;;;13.15;2.25;;;;;;;11.35;70.85;99689.97;5030287;28;20103;-85
2022/10/10 05:53:52;;;;;;;7.70;2.45;;;;;;;11.37;71.29;99695.97;5029986;28;20128;-83
2022/10/10 05:56:18;;;;;;;11.18;2.97;;;;;;;11.33;70.93;99692.97;5029045;28;20029;-85
2022/10/10 05:58:44;;;;;;;7.00;2.73;;;;;;;11.32;71.48;99693.25;5030776;28;20040;-84
2022/10/10 06:01:09;;;;;;;6.63;2.90;;;;;;;11.31;71.12;99692.44;5030537;28;20281;-85
2022/10/10 06:03:35;;;;;;;5.65;2.67;;;;;;;11.33;71.36;99690.25;5029855;28;20030;-84
2022/10/10 06:06:01;;;;;;;9.48;2.67;;;;;;;11.24;71.80;99691.06;5030479;28;20033;-85
2022/10/10 06:08:27;;;;;;;6.28;2.38;;;;;;;11.12;72.11;99699.50;5030533;28;20030;-85
2022/10/10 06:10:52;;;;;;;5.57;2.20;;;;;;;11.23;71.88;99701.16;5030181;28;20036;-85
2022/10/10 06:13:19;;;;;;;9.68;2.28;;;;;;;11.44;70.92;99695.72;5028985;28;20040;-84
2022/10/10 06:15:45;;;;;;;7.90;3.38;;;;;;;11.48;70.96;99693.25;5029269;28;20681;-84
2022/10/10 06:18:10;;;;;;;6.00;2.38;;;;;;;11.41;71.58;99688.09;5045302;28;20037;-84
2022/10/10 06:20:37;;;;;;;5.53;2.72;;;;;;;11.33;71.92;99694.88;5030925;28;20038;-82
2022/10/10 06:23:03;;;;;;;10.25;4.13;;;;;;;11.35;71.64;99694.63;5029267;28;20034;-86
2022/10/10 06:25:29;;;;;;;13.45;3.97;;;;;;;11.38;71.72;99688.63;5030426;28;20466;-89
2022/10/10 06:27:54;;;;;;;5.88;2.67;;;;;;;11.30;72.19;99690.81;5030297;28;20033;-85
2022/10/10 06:30:20;;;;;;;6.90;2.88;;;;;;;11.36;72.19;99698.97;5029953;28;20038;-85
2022/10/10 06:32:45;;;;;;;7.07;2.57;;;;;;;11.43;72.47;99700.34;5029678;28;20034;-85
2022/10/10 06:35:10;;;;;;;6.90;2.75;;;;;;;11.58;71.93;99706.09;5032592;28;20259;-86
2022/10/10 06:37:36;;;;;;;6.38;2.10;;;;;;;11.41;72.18;99707.19;5034184;28;20071;-89
2022/10/10 06:40:02;;;;;;;4.97;2.25;;;;;;;11.52;72.21;99700.63;5034032;28;20094;-84
2022/10/10 06:42:27;;;;;;;7.88;2.58;;;;;;;11.51;71.70;99696.25;5032239;28;20447;-85
2022/10/10 06:44:52;;;;;;;7.00;2.30;;;;;;;11.38;72.50;99707.72;5033262;28;20080;-83
2022/10/10 06:47:18;;;;;;;10.23;3.45;;;;;;;11.42;72.46;99712.38;5015433;28;20318;-84
2022/10/10 06:49:43;;;;;;;5.90;2.30;;;;;;;11.41;72.60;99718.91;5023990;28;20041;-85
2022/10/10 06:52:08;;;;;;;5.93;2.43;;;;;;;11.38;72.58;99730.38;5033020;28;20262;-83
2022/10/10 06:54:35;;;;;;;8.33;2.20;;;;;;;11.39;72.28;99726.56;5033274;28;20270;-88
2022/10/10 06:57:00;;;;;;;20.05;3.58;;;;;;;11.42;72.35;99727.94;5033258;28;20282;-85
2022/10/10 06:59:25;;;;;;;7.70;2.53;;;;;;;11.52;72.37;99722.47;5033550;28;20536;-86
2022/10/10 07:01:51;;;;;;;12.67;3.27;;;;;;;11.56;72.32;99725.47;5049137;28;20076;-86
2022/10/10 07:04:16;;;;;;;9.03;3.83;;;;;;;11.63;72.80;99725.22;5033558;28;20250;-88
2022/10/10 07:06:41;;;;;;;5.57;2.63;;;;;;;11.61;72.40;99724.66;5033845;28;20348;-86
2022/10/10 07:09:06;;;;;;;7.53;2.97;;;;;;;11.60;72.28;99725.75;5027075;28;20282;-86
2022/10/10 07:11:32;;;;;;;5.22;2.30;;;;;;;11.69;72.49;99713.22;5013485;28;20022;-86
2022/10/10 07:13:57;;;;;;;10.05;2.38;;;;;;;11.75;71.91;99716.75;5031574;28;20040;-87
2022/10/10 07:16:22;;;;;;;7.75;3.17;;;;;;;11.73;72.46;99711.56;5033229;28;20178;-85
2022/10/10 07:18:48;;;;;;;4.30;2.88;;;;;;;11.78;72.31;99722.47;5033548;28;20378;-86
2022/10/10 07:21:13;;;;;;;6.85;2.05;;;;;;;11.85;72.36;99724.13;5032836;28;20049;-87
2022/10/10 07:23:39;;;;;;;8.55;3.67;;;;;;;11.89;72.55;99727.94;5032641;28;20376;-86
2022/10/10 07:26:09;;;;;;;6.67;2.50;;;;;;;11.95;72.60;99732.31;5033435;28;20120;-86
2022/10/10 07:28:35;;;;;;;9.43;3.17;;;;;;;12.07;72.57;99725.72;5033342;28;20254;-85
2022/10/10 07:31:05;;;;;;;20.67;3.25;;;;;;;12.15;72.16;99730.66;5034311;28;20036;-89
2022/10/10 07:33:37;;;;;;;8.75;2.95;;;;;;;12.16;72.54;99732.31;5032017;28;20116;-86
2022/10/10 07:36:03;;;;;;;7.72;2.55;;;;;;;12.35;71.89;99734.44;5032512;28;20021;-85
2022/10/10 07:38:28;;;;;;;8.50;2.58;;;;;;;12.52;71.46;99727.81;5033408;28;20051;-86
2022/10/10 07:40:53;;;;;;;7.68;2.70;;;;;;;12.67;71.85;99727.75;5032464;28;20706;-83
2022/10/10 07:43:19;;;;;;;9.77;2.13;;;;;;;12.75;71.47;99733.75;5032005;28;20029;-83
2022/10/10 07:45:44;;;;;;;7.82;3.20;;;;;;;12.69;71.79;99741.97;5031242;28;20336;-85
2022/10/10 07:48:10;;;;;;;4.77;2.67;;;;;;;12.78;70.98;99738.66;5029749;28;20053;-84
2022/10/10 07:50:39;;;;;;;6.80;2.45;;;;;;;12.82;70.83;99743.31;5023790;28;20299;-87
2022/10/10 07:53:05;;;;;;;7.07;2.33;;;;;;;13.10;70.30;99745.63;5029228;28;20021;-90
2022/10/10 07:55:31;;;;;;;6.15;3.30;;;;;;;13.25;70.17;99739.25;5031793;28;20017;-83
2022/10/10 07:57:58;;;;;;;7.78;2.80;;;;;;;13.29;69.43;99750.44;5032259;28;20064;-84
2022/10/10 08:00:23;;;;;;;6.07;2.63;;;;;;;13.12;69.76;99743.41;5032342;28;20186;-86
2022/10/10 08:02:49;;;;;;;5.72;2.13;;;;;;;13.25;70.43;99743.91;5030924;28;20034;-82
2022/10/10 08:05:15;;;;;;;8.90;2.95;;;;;;;13.18;70.59;99745.03;5031807;28;20033;-85
2022/10/10 08:07:40;;;;;;;6.22;2.75;;;;;;;13.24;70.13;99737.59;5031632;28;20222;-85
2022/10/10 08:10:07;;;;;;;8.57;3.50;;;;;;;13.28;69.77;99741.41;5032096;28;20045;-85
2022/10/10 08:12:32;;;;;;;5.45;2.58;;;;;;;13.09;70.70;99735.78;5029680;28;20094;-85
2022/10/10 08:14:58;;;;;;;7.77;2.80;;;;;;;13.25;70.79;99739.25;5030283;28;20064;-85
2022/10/10 08:17:23;;;;;;;6.97;1.98;;;;;;;13.31;71.21;99742.75;5030054;28;20266;-85
2022/10/10 08:19:48;;;;;;;6.28;3.30;;;;;;;13.26;70.88;99734.59;5029987;28;20426;-85
2022/10/10 08:22:14;;;;;;;7.20;3.90;;;;;;;13.40;70.30;99735.56;5030113;28;20033;-85
2022/10/10 08:24:39;;;;;;;7.93;3.05;;;;;;;13.36;70.46;99745.50;5030925;28;20365;-85
2022/10/10 08:27:05;;;;;;;8.13;2.67;;;;;;;13.28;70.94;99752.34;5030533;28;20021;-84
2022/10/10 08:29:31;;;;;;;7.40;2.72;;;;;;;13.25;71.16;99739.25;5031295;28;20029;-85
2022/10/10 08:31:57;;;;;;;9.70;3.22;;;;;;;13.24;71.28;99739.53;5031645;28;20474;-85
2022/10/10 08:34:22;;;;;;;8.87;3.63;;;;;;;13.23;71.25;99746.94;5031029;28;20405;-85
2022/10/10 08:36:47;;;;;;;6.63;2.83;;;;;;;13.31;71.28;99738.13;5031114;28;20266;-85
2022/10/10 08:39:13;;;;;;;6.73;2.30;;;;;;;13.40;71.04;99745.72;5030721;28;20025;-85
2022/10/10 08:41:50;;;;;;;8.00;3.47;;;;;;;13.43;71.11;99750.63;5031419;28;20262;-85
2022/10/10 08:44:35;;;;;;;12.38;3.35;;;;;;;13.35;71.20;99748.50;5029887;28;20282;-85
2022/10/10 08:47:09;;;;;;;7.93;2.88;;;;;;;13.45;71.40;99742.94;5031142;28;20049;-84
2022/10/10 08:49:48;;;;;;;6.05;2.55;;;;;;;13.51;70.63;99746.47;5031046;28;20034;-85
2022/10/10 08:52:34;;;;;;;7.93;3.28;;;;;;;13.60;70.69;99752.19;5030631;28;20030;-85
2022/10/10 08:55:06;;;;;;;6.63;2.72;;;;;;;13.64;71.19;99748.59;5031232;28;20036;-85
2022/10/10 08:57:47;;;;;;;8.52;4.15;;;;;;;13.63;70.99;99754.34;5031118;28;20359;-85
2022/10/10 09:00:16;;;;;;;7.20;3.17;;;;;;;13.75;70.97;99754.00;5030740;28;20112;-84
2022/10/10 09:02:55;;;;;;;15.15;3.40;;;;;;;13.72;71.80;99749.09;5029165;28;20474;-84
2022/10/10 09:06:11;;;;;;;5.60;2.92;;;;;;;13.93;70.69;99757.13;5030997;28;20061;-84
2022/10/10 09:08:58;;;;;;;8.35;2.67;;;;;;;13.79;71.30;99751.50;5012363;28;20120;-85
2022/10/10 09:11:45;;;;;;;10.73;3.60;;;;;;;13.73;71.67;99759.75;5031045;28;20021;-85
2022/10/10 09:14:36;;;;;;;8.02;3.13;;;;;;;13.96;70.77;99767.50;5049012;28;20029;-85
2022/10/10 09:17:46;;;;;;;5.88;2.42;;;;;;;14.08;70.63;99764.38;5052958;28;20112;-86
2022/10/10 09:20:21;;;;;;;10.60;2.35;;;;;;;14.23;70.59;99761.50;5036914;28;20036;-85
2022/10/10 09:23:07;;;;;;;5.57;2.33;;;;;;;14.20;70.42;99770.31;5029362;28;20029;-85
2022/10/10 09:25:37;;;;;;;10.20;3.35;;;;;;;14.25;70.47;99761.22;5030323;28;20041;-85
2022/10/10 09:28:09;;;;;;;6.22;2.38;;;;;;;14.34;70.23;99766.88;5029328;28;20056;-85
2022/10/10 09:30:43;;;;;;;7.85;3.65;;;;;;;14.42;70.29;99768.19;5030741;28;20053;-84
2022/10/10 09:33:24;;;;;;;8.43;2.75;;;;;;;14.64;69.79;99772.34;5028363;28;20417;-80
2022/10/10 09:35:52;;;;;;;11.70;3.05;;;;;;;14.71;69.58;99764.56;5018455;28;20037;-85
2022/10/10 09:38:33;;;;;;;6.25;2.70;;;;;;;14.79;69.15;99763.91;5020152;28;20128;-85
2022/10/10 09:41:07;;;;;;;13.73;3.83;;;;;;;14.70;67.87;99763.75;5022993;28;20061;-85
2022/10/10 09:43:33;;;;;;;9.70;3.55;;;;;;;14.68;68.15;99756.91;5023456;28;20343;-86
2022/10/10 09:45:59;;;;;;;8.48;3.40;;;;;;;14.92;67.77;99753.34;5010102;28;20498;-85
2022/10/10 09:48:30;;;;;;;12.27;3.35;;;;;;;14.74;66.78;99755.75;5010193;28;20057;-86
2022/10/10 09:50:56;;;;;;;5.78;2.90;;;;;;;14.83;67.24;99755.94;5029509;28;20033;-85
2022/10/10 09:53:21;;;;;;;9.82;3.33;;;;;;;14.93;66.90;99749.50;5027824;28;20128;-84
2022/10/10 09:55:49;;;;;;;10.25;3.80;;;;;;;14.90;67.03;99750.09;5030457;28;20036;-86
2022/10/10 09:58:40;;;;;;;13.27;2.83;;;;;;;15.02;66.47;99753.22;5030172;28;20095;-84
2022/10/10 10:01:21;;;;;;;6.95;2.90;;;;;;;15.24;66.31;99771.03;5030724;28;20033;-86
2022/10/10 10:04:04;;;;;;;4.78;2.60;;;;;;;15.36;65.66;99767.84;5029469;28;20096;-83
2022/10/10 10:06:30;;;;;;;6.30;1.92;;;;;;;15.47;65.89;99774.03;5029858;28;20044;-86
2022/10/10 10:09:00;;;;;;;9.95;2.70;;;;;;;15.59;64.80;99775.50;5029605;28;20034;-88
2022/10/10 10:11:33;;;;;;;7.50;2.08;;;;;;;15.50;63.73;99775.34;5030250;28;20036;-87
2022/10/10 10:14:01;;;;;;;6.37;2.43;;;;;;;15.57;63.45;99774.97;5045898;28;20082;-88
2022/10/10 10:16:38;;;;;;;11.15;3.22;;;;;;;15.65;63.28;99771.56;5049908;28;20335;-87
2022/10/10 10:19:06;;;;;;;6.25;3.05;;;;;;;15.89;62.83;99776.13;5024191;28;20113;-85
2022/10/10 10:21:45;;;;;;;5.25;2.70;;;;;;;15.83;62.27;99774.56;5017770;28;20030;-87
2022/10/10 10:24:27;;;;;;;6.88;2.88;;;;;;;15.95;61.68;99779.59;5017759;28;20264;-87
2022/10/10 10:26:53;;;;;;;10.48;2.35;;;;;;;16.02;61.89;99777.31;5020243;28;20060;-87
2022/10/10 10:29:28;;;;;;;12.88;3.47;;;;;;;15.99;62.22;99777.88;5017662;28;20069;-87
2022/10/10 10:32:11;;;;;;;9.27;1.77;;;;;;;16.02;61.36;99784.75;5015625;28;20030;-86
2022/10/10 10:34:57;;;;;;;8.93;2.20;;;;;;;15.88;62.09;99785.50;5028714;28;20067;-87
2022/10/10 10:37:31;;;;;;;5.68;1.92;;;;;;;15.88;62.45;99791.78;5028529;28;20124;-88
2022/10/10 10:39:57;;;;;;;13.23;2.22;;;;;;;16.06;61.77;99789.34;5019621;28;20112;-87
2022/10/10 10:42:34;;;;;;;12.43;2.53;;;;;;;16.34;61.79;99796.81;5021012;28;20117;-87
2022/10/10 10:45:09;;;;;;;9.95;2.28;;;;;;;16.27;62.23;99793.66;5027245;28;20366;-85
2022/10/10 10:48:07;;;;;;;7.53;2.20;;;;;;;16.29;61.61;99792.22;5022546;28;20077;-88
2022/10/10 10:50:35;;;;;;;8.40;2.15;;;;;;;16.45;61.44;99781.75;5023962;28;20105;-88
2022/10/10 10:53:14;;;;;;;11.50;2.78;;;;;;;16.48;61.20;99787.75;5021206;28;20056;-87
2022/10/10 10:55:54;;;;;;;7.65;2.10;;;;;;;16.54;60.80;99784.63;5026031;28;20115;-86
2022/10/10 10:58:48;;;;;;;11.77;2.97;;;;;;;16.55;61.01;99789.03;5019874;28;20471;-88
2022/10/10 11:01:27;;;;;;;5.82;2.72;;;;;;;16.65;60.73;99787.19;5010090;28;20105;-88
2022/10/10 11:04:11;;;;;;;7.63;2.55;;;;;;;16.92;60.07;99789.09;5018347;28;20053;-87
2022/10/10 11:06:57;;;;;;;7.63;2.03;;;;;;;16.80;60.40;99791.56;5027955;28;20033;-87
2022/10/10 11:09:27;;;;;;;5.18;1.90;;;;;;;16.69;60.37;99789.03;5026001;28;20041;-88
2022/10/10 11:12:24;;;;;;;11.10;3.38;;;;;;;16.73;60.24;99799.41;5029931;28;20478;-87
2022/10/10 11:14:56;;;;;;;15.68;3.53;;;;;;;16.82;60.63;99788.50;5028753;28;20049;-86
2022/10/10 11:17:25;;;;;;;8.85;2.08;;;;;;;16.76;60.46;99782.31;5029149;28;20104;-86
2022/10/10 11:20:10;;;;;;;8.27;2.78;;;;;;;16.75;60.23;99783.41;5021758;28;20552;-88
2022/10/10 11:22:43;;;;;;;14.75;2.17;;;;;;;16.64;60.12;99791.88;5024414;28;20393;-86
2022/10/10 11:25:31;;;;;;;10.05;2.42;;;;;;;16.61;60.60;99786.97;5015571;28;20108;-86
2022/10/10 11:28:03;;;;;;;6.47;2.33;;;;;;;16.65;60.25;99785.25;5018438;28;20511;-88
2022/10/10 11:30:34;;;;;;;6.75;2.45;;;;;;;16.57;60.34;99786.78;5012579;28;20033;-86
2022/10/10 11:33:08;;;;;;;8.23;1.98;;;;;;;16.59;60.79;99794.72;5016102;28;20380;-87
2022/10/10 11:35:41;;;;;;;7.10;2.50;;;;;;;16.63;60.19;99787.50;5022171;28;20085;-89
2022/10/10 11:38:23;;;;;;;6.95;2.35;;;;;;;16.61;60.61;99786.97;5021657;28;20469;-86
2022/10/10 11:40:57;;;;;;;6.07;1.52;;;;;;;16.80;60.35;99786.88;5023779;28;20026;-88
2022/10/10 11:43:45;;;;;;;7.65;2.70;;;;;;;16.62;60.11;99783.09;5025171;28;20045;-88
2022/10/10 11:46:17;;;;;;;10.13;2.72;;;;;;;16.77;60.21;99783.91;5020243;28;20483;-89